Bowling Green Warren County Regional Airport Bowling Green US
ICAO: KBWG
IATA: BWG
Category: Medium
Scheduled Services: No

Elevation: 547 ft
TransAlt. 18000 ft.

Airport Communications:
ASOS:127.825
MEMPHIS CNTR:133.85
LOUISVILLE RDO:122.2
CTAF/UNICOM:123

KBWG Zoom In..

Runways:

(A) RW 03 length 6499 ft width 150 ft
ILS 108.75 / hdg 32

(B) RW 12 length 3955 ft width 150 ft
---- / hdg 122

(C) RW 21 length 6499 ft width 150 ft
---- / hdg 212

(D) RW 30 length 3955 ft width 150 ft
---- / hdg 302

Location; KBWG
Day. 23 / Time. 03.53 Zulu
* Altimeter: 29.82
* Temperature: 22° c. 71.6°f.
* Wind from: VRB° Speed 03 kn.
Dewpoint: 21° c.
Visibility: 10 Statute Miles.
Clouds: Broken 900 ft.
Clouds: Broken 5000 ft.

KBWG 230353Z AUTO VRB03KT 10SM BKN009 BKN050 22/21 A2982 RMK AO2 CIG 006V012 SLP093 T02170206


Wind From VRB°
Speed 03 kn.

 
 
jpsmedia.com for Web Design worldairports.se 2018   terms of use